DHK62R LFMN-LEBL
Flight info
| Callsign | DHK62R |
|---|---|
| Flight time | 0h 54m |
| Altitude | 30000 |
| Route | EPOLO7A EPOLO DCT SOFFY/N0434F290 DCT NILDU DCT BISBA BISBA2Z |
| Aircraft | B738/M-SDE2E3FGHIRWXY/LB1 |
Departure
| Time | 2026-05-04 19:55 |
|---|---|
| Airport | Nice-Côte d'Azur Airport (LFMN) |
Arrival
| Time | 2026-05-04 20:49 |
|---|---|
| Airport | Josep Tarradellas Barcelona-El Prat Airport (LEBL) |
| Time | Latitude | Longitude | Altitude | Speed | Heading |
|---|---|---|---|---|---|
| 2026-05-04 19:39 | 43.66575 | 7.21875 | 22 ft | 0 kts | 135° |
| 2026-05-04 19:47 | 43.66575 | 7.21876 | 22 ft | 0 kts | 135° |
| 2026-05-04 19:48 | 43.66564 | 7.21890 | 22 ft | 4 kts | 137° |
| 2026-05-04 19:48 | 43.66522 | 7.21904 | 21 ft | 9 kts | 194° |
| 2026-05-04 19:48 | 43.66461 | 7.21846 | 21 ft | 13 kts | 225° |
| 2026-05-04 19:48 | 43.66389 | 7.21745 | 21 ft | 17 kts | 224° |
| 2026-05-04 19:49 | 43.66288 | 7.21609 | 21 ft | 24 kts | 224° |
| 2026-05-04 19:49 | 43.66157 | 7.21429 | 21 ft | 26 kts | 221° |
| 2026-05-04 19:49 | 43.66035 | 7.21256 | 21 ft | 24 kts | 225° |
| 2026-05-04 19:49 | 43.65922 | 7.21100 | 21 ft | 23 kts | 225° |
| 2026-05-04 19:50 | 43.65866 | 7.21022 | 21 ft | 0 kts | 225° |
| 2026-05-04 19:50 | 43.65858 | 7.21013 | 21 ft | 6 kts | 220° |
| 2026-05-04 19:50 | 43.65787 | 7.20918 | 21 ft | 21 kts | 222° |
| 2026-05-04 19:51 | 43.65643 | 7.20903 | 21 ft | 21 kts | 170° |
| 2026-05-04 19:51 | 43.65499 | 7.20935 | 21 ft | 21 kts | 171° |
| 2026-05-04 19:51 | 43.65362 | 7.20952 | 21 ft | 20 kts | 197° |
| 2026-05-04 19:51 | 43.65257 | 7.20828 | 21 ft | 19 kts | 225° |
| 2026-05-04 19:52 | 43.65162 | 7.20701 | 21 ft | 19 kts | 227° |
| 2026-05-04 19:52 | 43.65074 | 7.20579 | 21 ft | 18 kts | 226° |
| 2026-05-04 19:52 | 43.64990 | 7.20463 | 21 ft | 17 kts | 225° |
| 2026-05-04 19:52 | 43.64908 | 7.20350 | 21 ft | 16 kts | 225° |
| 2026-05-04 19:53 | 43.64817 | 7.20278 | 21 ft | 16 kts | 170° |
| 2026-05-04 19:53 | 43.64773 | 7.20379 | 21 ft | 10 kts | 66° |
| 2026-05-04 19:53 | 43.64796 | 7.20419 | 21 ft | 0 kts | 44° |
| 2026-05-04 19:54 | 43.64976 | 7.20665 | 21 ft | 86 kts | 45° |
| 2026-05-04 19:55 | 43.65617 | 7.21556 | 52 ft | 170 kts | 46° |
| 2026-05-04 19:55 | 43.66520 | 7.22837 | 856 ft | 194 kts | 46° |
| 2026-05-04 19:55 | 43.67113 | 7.24453 | 2250 ft | 192 kts | 83° |
| 2026-05-04 19:55 | 43.66757 | 7.26314 | 3098 ft | 211 kts | 129° |
| 2026-05-04 19:56 | 43.65646 | 7.27642 | 4051 ft | 218 kts | 143° |
| 2026-05-04 19:56 | 43.64443 | 7.28939 | 5007 ft | 221 kts | 141° |
| 2026-05-04 19:56 | 43.63243 | 7.30297 | 5684 ft | 226 kts | 141° |
| 2026-05-04 19:56 | 43.62026 | 7.31703 | 6318 ft | 231 kts | 140° |
| 2026-05-04 19:57 | 43.60712 | 7.32981 | 6998 ft | 233 kts | 159° |
| 2026-05-04 19:57 | 43.59124 | 7.33197 | 7684 ft | 233 kts | 193° |
| 2026-05-04 19:57 | 43.57653 | 7.32286 | 8365 ft | 234 kts | 212° |
| 2026-05-04 19:57 | 43.56287 | 7.31041 | 9003 ft | 237 kts | 214° |
| 2026-05-04 19:58 | 43.54910 | 7.29745 | 9643 ft | 242 kts | 214° |
| 2026-05-04 19:58 | 43.53504 | 7.28434 | 10363 ft | 246 kts | 214° |
| 2026-05-04 19:58 | 43.52075 | 7.27107 | 11084 ft | 254 kts | 214° |
| 2026-05-04 19:58 | 43.50526 | 7.25683 | 11333 ft | 281 kts | 214° |
| 2026-05-04 19:59 | 43.48816 | 7.24118 | 11563 ft | 308 kts | 214° |
| 2026-05-04 19:59 | 43.46954 | 7.22420 | 11808 ft | 332 kts | 214° |
| 2026-05-04 19:59 | 43.44991 | 7.20633 | 12398 ft | 343 kts | 214° |
| 2026-05-04 19:59 | 43.42990 | 7.18812 | 13202 ft | 346 kts | 214° |
| 2026-05-04 20:00 | 43.40973 | 7.16979 | 14016 ft | 349 kts | 213° |
| 2026-05-04 20:00 | 43.38934 | 7.15128 | 14771 ft | 353 kts | 213° |
| 2026-05-04 20:00 | 43.36870 | 7.13254 | 15508 ft | 357 kts | 213° |
| 2026-05-04 20:00 | 43.34781 | 7.11360 | 16225 ft | 361 kts | 213° |
| 2026-05-04 20:01 | 43.32671 | 7.09448 | 16934 ft | 365 kts | 213° |
| 2026-05-04 20:01 | 43.30538 | 7.07516 | 17624 ft | 369 kts | 213° |
| 2026-05-04 20:01 | 43.28381 | 7.05566 | 18289 ft | 373 kts | 213° |
| 2026-05-04 20:01 | 43.26208 | 7.03601 | 18944 ft | 377 kts | 213° |
| 2026-05-04 20:02 | 43.24010 | 7.01615 | 19577 ft | 380 kts | 213° |
| 2026-05-04 20:02 | 43.21948 | 6.99754 | 20153 ft | 384 kts | 213° |
| 2026-05-04 20:02 | 43.19703 | 6.97731 | 20754 ft | 387 kts | 213° |
| 2026-05-04 20:02 | 43.17467 | 6.95650 | 21331 ft | 391 kts | 219° |
| 2026-05-04 20:03 | 43.15488 | 6.93074 | 21894 ft | 394 kts | 227° |
| 2026-05-04 20:03 | 43.13627 | 6.90306 | 22452 ft | 397 kts | 228° |
| 2026-05-04 20:03 | 43.11772 | 6.87506 | 22978 ft | 400 kts | 228° |
| 2026-05-04 20:03 | 43.09914 | 6.84724 | 23485 ft | 404 kts | 227° |
| 2026-05-04 20:04 | 43.07995 | 6.81889 | 24001 ft | 406 kts | 227° |
| 2026-05-04 20:04 | 43.06062 | 6.79066 | 24624 ft | 406 kts | 227° |
| 2026-05-04 20:04 | 43.04133 | 6.76270 | 25316 ft | 403 kts | 227° |
| 2026-05-04 20:04 | 43.02211 | 6.73496 | 25966 ft | 401 kts | 226° |
| 2026-05-04 20:05 | 43.00292 | 6.70731 | 26543 ft | 401 kts | 226° |
| 2026-05-04 20:05 | 42.98371 | 6.67967 | 27096 ft | 400 kts | 226° |
| 2026-05-04 20:05 | 42.96459 | 6.65217 | 27680 ft | 399 kts | 226° |
| 2026-05-04 20:05 | 42.94549 | 6.62470 | 28253 ft | 398 kts | 226° |
| 2026-05-04 20:06 | 42.92648 | 6.59740 | 28780 ft | 397 kts | 226° |
| 2026-05-04 20:06 | 42.90737 | 6.56998 | 28988 ft | 400 kts | 226° |
| 2026-05-04 20:06 | 42.88886 | 6.54231 | 28984 ft | 398 kts | 233° |
| 2026-05-04 20:06 | 42.87624 | 6.50918 | 29007 ft | 395 kts | 252° |
| 2026-05-04 20:07 | 42.86823 | 6.47324 | 29009 ft | 397 kts | 254° |
| 2026-05-04 20:07 | 42.85297 | 6.40053 | 29009 ft | 400 kts | 254° |
| 2026-05-04 20:08 | 42.83752 | 6.32756 | 29001 ft | 400 kts | 253° |
| 2026-05-04 20:08 | 42.82181 | 6.25484 | 28998 ft | 399 kts | 253° |
| 2026-05-04 20:09 | 42.80598 | 6.18247 | 28998 ft | 397 kts | 253° |
| 2026-05-04 20:09 | 42.79016 | 6.11054 | 29001 ft | 396 kts | 253° |
| 2026-05-04 20:10 | 42.77433 | 6.03886 | 29000 ft | 395 kts | 253° |
| 2026-05-04 20:10 | 42.76156 | 5.98120 | 29004 ft | 395 kts | 253° |
| 2026-05-04 20:11 | 42.74569 | 5.90977 | 29001 ft | 395 kts | 253° |
| 2026-05-04 20:11 | 42.72976 | 5.83825 | 29003 ft | 395 kts | 253° |
| 2026-05-04 20:12 | 42.71375 | 5.76663 | 29001 ft | 396 kts | 253° |
| 2026-05-04 20:12 | 42.69765 | 5.69489 | 29003 ft | 397 kts | 253° |
| 2026-05-04 20:13 | 42.68155 | 5.62332 | 29000 ft | 397 kts | 253° |
| 2026-05-04 20:13 | 42.66535 | 5.55160 | 29002 ft | 397 kts | 253° |
| 2026-05-04 20:14 | 42.64912 | 5.47995 | 29002 ft | 397 kts | 253° |
| 2026-05-04 20:14 | 42.63297 | 5.40888 | 29000 ft | 396 kts | 253° |
| 2026-05-04 20:15 | 42.61666 | 5.33733 | 29000 ft | 396 kts | 253° |
| 2026-05-04 20:15 | 42.60032 | 5.26590 | 29000 ft | 396 kts | 253° |
| 2026-05-04 20:16 | 42.58395 | 5.19457 | 29000 ft | 396 kts | 253° |
| 2026-05-04 20:16 | 42.56754 | 5.12330 | 29000 ft | 395 kts | 252° |
| 2026-05-04 20:17 | 42.55112 | 5.05217 | 29000 ft | 395 kts | 252° |
| 2026-05-04 20:17 | 42.53505 | 4.98285 | 29000 ft | 395 kts | 252° |
| 2026-05-04 20:18 | 42.51852 | 4.91170 | 29001 ft | 396 kts | 252° |
| 2026-05-04 20:18 | 42.50195 | 4.84066 | 29002 ft | 396 kts | 252° |
| 2026-05-04 20:19 | 42.48533 | 4.76961 | 29000 ft | 396 kts | 252° |
| 2026-05-04 20:19 | 42.46876 | 4.69896 | 29000 ft | 396 kts | 252° |
| 2026-05-04 20:20 | 42.45203 | 4.62792 | 29002 ft | 396 kts | 252° |
| 2026-05-04 20:20 | 42.43529 | 4.55702 | 29002 ft | 395 kts | 252° |
| 2026-05-04 20:21 | 42.41850 | 4.48612 | 29003 ft | 395 kts | 252° |
| 2026-05-04 20:21 | 42.39322 | 4.37983 | 29000 ft | 395 kts | 252° |
| 2026-05-04 20:22 | 42.37632 | 4.30900 | 29000 ft | 395 kts | 252° |
| 2026-05-04 20:22 | 42.35938 | 4.23826 | 29000 ft | 395 kts | 252° |
| 2026-05-04 20:23 | 42.34254 | 4.16817 | 29001 ft | 395 kts | 252° |
| 2026-05-04 20:23 | 42.32551 | 4.09747 | 29000 ft | 395 kts | 252° |
| 2026-05-04 20:24 | 42.30846 | 4.02692 | 29002 ft | 395 kts | 252° |
| 2026-05-04 20:24 | 42.29210 | 3.95937 | 29000 ft | 395 kts | 252° |
| 2026-05-04 20:25 | 42.27535 | 3.89046 | 28759 ft | 379 kts | 252° |
| 2026-05-04 20:25 | 42.26666 | 3.85727 | 28475 ft | 374 kts | 245° |
| 2026-05-04 20:25 | 42.25382 | 3.82704 | 28147 ft | 369 kts | 234° |
| 2026-05-04 20:26 | 42.23730 | 3.80075 | 27787 ft | 367 kts | 223° |
| 2026-05-04 20:26 | 42.21820 | 3.77814 | 27442 ft | 364 kts | 220° |
| 2026-05-04 20:26 | 42.19896 | 3.75616 | 27078 ft | 361 kts | 220° |
| 2026-05-04 20:26 | 42.17982 | 3.73428 | 26721 ft | 359 kts | 220° |
| 2026-05-04 20:27 | 42.16089 | 3.71247 | 26365 ft | 356 kts | 221° |
| 2026-05-04 20:27 | 42.14217 | 3.69075 | 26013 ft | 354 kts | 221° |
| 2026-05-04 20:27 | 42.12357 | 3.66911 | 25662 ft | 352 kts | 221° |
| 2026-05-04 20:27 | 42.10511 | 3.64762 | 25312 ft | 350 kts | 221° |
| 2026-05-04 20:28 | 42.08678 | 3.62626 | 24967 ft | 347 kts | 222° |
| 2026-05-04 20:28 | 42.06932 | 3.60383 | 24622 ft | 346 kts | 225° |
| 2026-05-04 20:28 | 42.05259 | 3.58052 | 24266 ft | 346 kts | 227° |
| 2026-05-04 20:28 | 42.03608 | 3.55697 | 23928 ft | 346 kts | 227° |
| 2026-05-04 20:29 | 42.01956 | 3.53342 | 23588 ft | 345 kts | 227° |
| 2026-05-04 20:29 | 42.00309 | 3.51007 | 23241 ft | 346 kts | 226° |
| 2026-05-04 20:29 | 41.98654 | 3.48675 | 22893 ft | 346 kts | 226° |
| 2026-05-04 20:29 | 41.96988 | 3.46341 | 22551 ft | 346 kts | 226° |
| 2026-05-04 20:30 | 41.95343 | 3.44043 | 22198 ft | 345 kts | 226° |
| 2026-05-04 20:30 | 41.93663 | 3.41703 | 21846 ft | 343 kts | 226° |
| 2026-05-04 20:30 | 41.92031 | 3.39435 | 21509 ft | 340 kts | 226° |
| 2026-05-04 20:30 | 41.90396 | 3.37163 | 21153 ft | 337 kts | 226° |
| 2026-05-04 20:31 | 41.88769 | 3.34906 | 20828 ft | 335 kts | 226° |
| 2026-05-04 20:31 | 41.87164 | 3.32680 | 20494 ft | 332 kts | 226° |
| 2026-05-04 20:31 | 41.85559 | 3.30457 | 20160 ft | 330 kts | 226° |
| 2026-05-04 20:31 | 41.83973 | 3.28261 | 19830 ft | 328 kts | 226° |
| 2026-05-04 20:32 | 41.82392 | 3.26075 | 19502 ft | 325 kts | 226° |
| 2026-05-04 20:32 | 41.80822 | 3.23905 | 19174 ft | 323 kts | 226° |
| 2026-05-04 20:32 | 41.79264 | 3.21753 | 18851 ft | 321 kts | 226° |
| 2026-05-04 20:32 | 41.77713 | 3.19612 | 18528 ft | 318 kts | 226° |
| 2026-05-04 20:33 | 41.76173 | 3.17488 | 18208 ft | 316 kts | 226° |
| 2026-05-04 20:33 | 41.74642 | 3.15379 | 17890 ft | 314 kts | 226° |
| 2026-05-04 20:33 | 41.73132 | 3.13298 | 17576 ft | 312 kts | 226° |
| 2026-05-04 20:33 | 41.71624 | 3.11223 | 17263 ft | 310 kts | 226° |
| 2026-05-04 20:34 | 41.70120 | 3.09153 | 16944 ft | 309 kts | 226° |
| 2026-05-04 20:34 | 41.68628 | 3.07102 | 16641 ft | 307 kts | 226° |
| 2026-05-04 20:34 | 41.67147 | 3.05070 | 16334 ft | 305 kts | 226° |
| 2026-05-04 20:34 | 41.65653 | 3.03063 | 16021 ft | 304 kts | 221° |
| 2026-05-04 20:35 | 41.63872 | 3.01594 | 15575 ft | 308 kts | 205° |
| 2026-05-04 20:35 | 41.61910 | 3.00423 | 15123 ft | 310 kts | 204° |
| 2026-05-04 20:35 | 41.60042 | 2.99308 | 14688 ft | 313 kts | 204° |
| 2026-05-04 20:35 | 41.58045 | 2.98104 | 14214 ft | 315 kts | 205° |
| 2026-05-04 20:36 | 41.56039 | 2.96881 | 13737 ft | 318 kts | 205° |
| 2026-05-04 20:36 | 41.54020 | 2.95643 | 13257 ft | 320 kts | 205° |
| 2026-05-04 20:36 | 41.51994 | 2.94396 | 12763 ft | 322 kts | 205° |
| 2026-05-04 20:36 | 41.49956 | 2.93138 | 12279 ft | 323 kts | 205° |
| 2026-05-04 20:37 | 41.47917 | 2.91880 | 11791 ft | 324 kts | 205° |
| 2026-05-04 20:37 | 41.45864 | 2.90613 | 11300 ft | 325 kts | 205° |
| 2026-05-04 20:37 | 41.43810 | 2.89346 | 10807 ft | 325 kts | 205° |
| 2026-05-04 20:37 | 41.41751 | 2.88078 | 10303 ft | 326 kts | 205° |
| 2026-05-04 20:38 | 41.39802 | 2.86563 | 9912 ft | 322 kts | 222° |
| 2026-05-04 20:38 | 41.38307 | 2.84470 | 9948 ft | 304 kts | 228° |
| 2026-05-04 20:38 | 41.36927 | 2.82465 | 9858 ft | 293 kts | 227° |
| 2026-05-04 20:38 | 41.35544 | 2.80479 | 9483 ft | 293 kts | 227° |
| 2026-05-04 20:39 | 41.34168 | 2.78515 | 9068 ft | 294 kts | 227° |
| 2026-05-04 20:39 | 41.32774 | 2.76536 | 8651 ft | 296 kts | 227° |
| 2026-05-04 20:39 | 41.31363 | 2.74540 | 8230 ft | 296 kts | 227° |
| 2026-05-04 20:39 | 41.29943 | 2.72538 | 7808 ft | 297 kts | 227° |
| 2026-05-04 20:40 | 41.28526 | 2.70541 | 7379 ft | 294 kts | 227° |
| 2026-05-04 20:40 | 41.27178 | 2.68544 | 6934 ft | 287 kts | 235° |
| 2026-05-04 20:40 | 41.26462 | 2.66134 | 6490 ft | 280 kts | 264° |
| 2026-05-04 20:40 | 41.26581 | 2.63611 | 6156 ft | 269 kts | 284° |
| 2026-05-04 20:41 | 41.27273 | 2.61386 | 5867 ft | 253 kts | 296° |
| 2026-05-04 20:41 | 41.28044 | 2.59344 | 5523 ft | 241 kts | 296° |
| 2026-05-04 20:41 | 41.28785 | 2.57404 | 5207 ft | 231 kts | 296° |
| 2026-05-04 20:41 | 41.29507 | 2.55511 | 4879 ft | 228 kts | 296° |
| 2026-05-04 20:42 | 41.30209 | 2.53658 | 4576 ft | 223 kts | 296° |
| 2026-05-04 20:42 | 41.30902 | 2.51824 | 4292 ft | 221 kts | 296° |
| 2026-05-04 20:42 | 41.31591 | 2.49992 | 3985 ft | 221 kts | 296° |
| 2026-05-04 20:42 | 41.32271 | 2.48179 | 3787 ft | 217 kts | 296° |
| 2026-05-04 20:43 | 41.32938 | 2.46400 | 3583 ft | 214 kts | 296° |
| 2026-05-04 20:43 | 41.33603 | 2.44622 | 3408 ft | 215 kts | 296° |
| 2026-05-04 20:43 | 41.34271 | 2.42835 | 3220 ft | 217 kts | 296° |
| 2026-05-04 20:43 | 41.34946 | 2.41028 | 3062 ft | 218 kts | 296° |
| 2026-05-04 20:44 | 41.35619 | 2.39225 | 2999 ft | 218 kts | 296° |
| 2026-05-04 20:44 | 41.36290 | 2.37425 | 2983 ft | 217 kts | 296° |
| 2026-05-04 20:44 | 41.36956 | 2.35635 | 2979 ft | 217 kts | 296° |
| 2026-05-04 20:44 | 41.37626 | 2.33828 | 2978 ft | 217 kts | 294° |
| 2026-05-04 20:45 | 41.37871 | 2.31878 | 2974 ft | 216 kts | 258° |
| 2026-05-04 20:45 | 41.37302 | 2.30043 | 2991 ft | 216 kts | 244° |
| 2026-05-04 20:45 | 41.36667 | 2.28212 | 2850 ft | 220 kts | 246° |
| 2026-05-04 20:45 | 41.36035 | 2.26342 | 2576 ft | 220 kts | 246° |
| 2026-05-04 20:46 | 41.35422 | 2.24548 | 2298 ft | 205 kts | 245° |
| 2026-05-04 20:46 | 41.34864 | 2.22922 | 2035 ft | 190 kts | 245° |
| 2026-05-04 20:46 | 41.34329 | 2.21360 | 1776 ft | 172 kts | 246° |
| 2026-05-04 20:46 | 41.33853 | 2.19971 | 1585 ft | 156 kts | 246° |
| 2026-05-04 20:47 | 41.33418 | 2.18700 | 1362 ft | 147 kts | 246° |
| 2026-05-04 20:47 | 41.33000 | 2.17478 | 1173 ft | 144 kts | 246° |
| 2026-05-04 20:47 | 41.32589 | 2.16274 | 1013 ft | 143 kts | 246° |
| 2026-05-04 20:47 | 41.32182 | 2.15085 | 811 ft | 144 kts | 246° |
| 2026-05-04 20:48 | 41.31774 | 2.13885 | 631 ft | 143 kts | 246° |
| 2026-05-04 20:48 | 41.31362 | 2.12679 | 451 ft | 144 kts | 245° |
| 2026-05-04 20:48 | 41.30949 | 2.11470 | 253 ft | 143 kts | 246° |
| 2026-05-04 20:48 | 41.30534 | 2.10263 | 50 ft | 143 kts | 246° |
| 2026-05-04 20:49 | 41.30155 | 2.09154 | 15 ft | 121 kts | 245° |
| 2026-05-04 20:49 | 41.29902 | 2.08410 | 19 ft | 86 kts | 245° |
| 2026-05-04 20:49 | 41.29735 | 2.07923 | 18 ft | 53 kts | 246° |
| 2026-05-04 20:49 | 41.29635 | 2.07625 | 18 ft | 21 kts | 245° |
| 2026-05-04 20:50 | 41.29616 | 2.07569 | 19 ft | 0 kts | 245° |
| 2026-05-04 20:50 | 41.29592 | 2.07499 | 20 ft | 14 kts | 245° |
| 2026-05-04 20:50 | 41.29540 | 2.07352 | 20 ft | 19 kts | 245° |
| 2026-05-04 20:50 | 41.29496 | 2.07180 | 17 ft | 21 kts | 286° |
| 2026-05-04 20:51 | 41.29605 | 2.07082 | 17 ft | 17 kts | 336° |
| 2026-05-04 20:51 | 41.29702 | 2.07110 | 17 ft | 16 kts | 60° |
| 2026-05-04 20:51 | 41.29771 | 2.07202 | 17 ft | 15 kts | 348° |
| 2026-05-04 20:51 | 41.29869 | 2.07155 | 19 ft | 15 kts | 331° |
| 2026-05-04 20:52 | 41.29929 | 2.07073 | 17 ft | 12 kts | 264° |
| 2026-05-04 20:52 | 41.29891 | 2.07013 | 17 ft | 7 kts | 179° |
| 2026-05-04 20:52 | 41.29846 | 2.07020 | 17 ft | 6 kts | 142° |
| 2026-05-04 20:52 | 41.29850 | 2.07045 | 17 ft | 3 kts | 29° |
| 2026-05-04 20:53 | 41.29853 | 2.07047 | 18 ft | 0 kts | 26° |